createdAt,value
2017-11-08T00:00:11.316Z,1008.73
2017-11-08T00:01:11.279Z,1008.63
2017-11-08T00:02:11.239Z,1008.72
2017-11-08T00:03:11.201Z,1008.71
2017-11-08T00:04:11.164Z,1008.64
2017-11-08T00:05:11.190Z,1008.63
2017-11-08T00:06:11.088Z,1008.60
2017-11-08T00:07:11.048Z,1008.63
2017-11-08T00:08:11.009Z,1008.52
2017-11-08T00:09:10.973Z,1008.55
2017-11-08T00:10:10.934Z,1008.57
2017-11-08T00:11:10.898Z,1008.57
2017-11-08T00:12:10.920Z,1008.50
2017-11-08T00:13:10.824Z,1008.49
2017-11-08T00:14:10.780Z,1008.50
2017-11-08T00:15:10.741Z,1008.40
2017-11-08T00:16:10.703Z,1008.45
2017-11-08T00:17:10.664Z,1008.43
2017-11-08T00:18:10.627Z,1008.44
2017-11-08T00:19:10.588Z,1008.39
2017-11-08T00:20:10.550Z,1008.40
2017-11-08T00:21:10.511Z,1008.38
2017-11-08T00:22:10.473Z,1008.41
2017-11-08T00:23:10.434Z,1008.46
2017-11-08T00:24:10.399Z,1008.39
2017-11-08T00:25:10.363Z,1008.46
2017-11-08T00:26:10.321Z,1008.43
2017-11-08T00:27:10.282Z,1008.46
2017-11-08T00:28:10.243Z,1008.45
2017-11-08T00:29:10.205Z,1008.48
2017-11-08T00:30:10.168Z,1008.50
2017-11-08T00:31:10.130Z,1008.41
2017-11-08T00:32:10.090Z,1008.46
2017-11-08T00:33:10.052Z,1008.48
2017-11-08T00:34:10.014Z,1008.50
2017-11-08T00:35:09.974Z,1008.52
2017-11-08T00:36:09.937Z,1008.42
2017-11-08T00:37:09.899Z,1008.55
2017-11-08T00:38:09.869Z,1008.45
2017-11-08T00:39:09.821Z,1008.51
2017-11-08T00:40:09.785Z,1008.54
2017-11-08T00:41:09.746Z,1008.53
2017-11-08T00:42:09.705Z,1008.57
2017-11-08T00:43:09.670Z,1008.55
2017-11-08T00:44:09.633Z,1008.55
2017-11-08T00:45:09.593Z,1008.48
2017-11-08T00:46:09.556Z,1008.60
2017-11-08T00:47:09.516Z,1008.54
2017-11-08T00:48:09.480Z,1008.56
2017-11-08T00:49:09.441Z,1008.48
2017-11-08T00:50:09.408Z,1008.52
2017-11-08T00:51:09.362Z,1008.53
2017-11-08T00:52:09.326Z,1008.47
2017-11-08T00:53:09.289Z,1008.49
2017-11-08T00:54:09.247Z,1008.55
2017-11-08T00:55:09.209Z,1008.52
2017-11-08T00:56:09.171Z,1008.54
2017-11-08T00:57:09.133Z,1008.49
2017-11-08T00:58:09.113Z,1008.50
2017-11-08T00:59:09.056Z,1008.48
2017-11-08T01:00:09.019Z,1008.46
2017-11-08T01:01:08.979Z,1008.51
2017-11-08T01:02:08.943Z,1008.52
2017-11-08T01:03:08.904Z,1008.50
2017-11-08T01:04:08.869Z,1008.50
2017-11-08T01:05:08.829Z,1008.47
2017-11-08T01:06:08.790Z,1008.44
2017-11-08T01:07:08.752Z,1008.47
2017-11-08T01:08:08.713Z,1008.41
2017-11-08T01:09:08.675Z,1008.37
2017-11-08T01:10:08.635Z,1008.32
2017-11-08T01:11:08.598Z,1008.28
2017-11-08T01:12:08.578Z,1008.33
2017-11-08T01:13:08.523Z,1008.32
2017-11-08T01:14:08.485Z,1008.33
2017-11-08T01:15:08.451Z,1008.27
2017-11-08T01:16:08.408Z,1008.28
2017-11-08T01:17:08.369Z,1008.30
2017-11-08T01:18:08.331Z,1008.31
2017-11-08T01:19:08.293Z,1008.27
2017-11-08T01:20:08.255Z,1008.25
2017-11-08T01:21:08.222Z,1008.19
2017-11-08T01:22:08.178Z,1008.22
2017-11-08T01:23:08.139Z,1008.20
2017-11-08T01:24:08.101Z,1008.18
2017-11-08T01:25:08.061Z,1008.24
2017-11-08T01:26:08.025Z,1008.23
2017-11-08T01:27:07.989Z,1008.20
2017-11-08T01:28:07.946Z,1008.24
2017-11-08T01:29:07.909Z,1008.31
2017-11-08T01:30:07.872Z,1008.26
2017-11-08T01:31:07.836Z,1008.30
2017-11-08T01:32:07.795Z,1008.35
2017-11-08T01:33:07.775Z,1008.29
2017-11-08T01:34:07.717Z,1008.26
2017-11-08T01:35:07.677Z,1008.28
2017-11-08T01:36:07.641Z,1008.30
2017-11-08T01:37:07.616Z,1008.30
2017-11-08T01:38:07.571Z,1008.24
2017-11-08T01:39:07.525Z,1008.19
2017-11-08T01:40:07.486Z,1008.13
2017-11-08T01:41:07.449Z,1008.22
2017-11-08T01:42:07.409Z,1008.20
2017-11-08T01:43:07.371Z,1008.14
2017-11-08T01:44:07.331Z,1008.16
2017-11-08T01:45:07.294Z,1008.14
2017-11-08T01:46:07.255Z,1008.06
2017-11-08T01:47:07.215Z,1008.06
2017-11-08T01:48:07.178Z,1008.05
2017-11-08T01:49:07.139Z,1008.07
2017-11-08T01:50:07.098Z,1008.04
2017-11-08T01:51:07.060Z,1008.07
2017-11-08T01:52:07.024Z,1008.07
2017-11-08T01:53:06.985Z,1008.03
2017-11-08T01:54:06.944Z,1008.11
2017-11-08T01:55:06.905Z,1008.14
2017-11-08T01:56:06.868Z,1008.13
2017-11-08T01:57:06.969Z,1008.16
2017-11-08T01:58:06.792Z,1008.13
2017-11-08T01:59:06.753Z,1008.22
2017-11-08T02:00:06.714Z,1008.06
2017-11-08T02:01:06.975Z,1008.26
2017-11-08T02:02:06.638Z,1008.17
2017-11-08T02:03:06.598Z,1008.18
2017-11-08T02:04:06.560Z,1008.17
2017-11-08T02:05:06.523Z,1008.22
2017-11-08T02:06:06.483Z,1008.29
2017-11-08T02:07:06.459Z,1008.21
2017-11-08T02:08:06.410Z,1008.24
2017-11-08T02:09:06.369Z,1008.25
2017-11-08T02:10:06.331Z,1008.22
2017-11-08T02:11:06.292Z,1008.19
2017-11-08T02:12:06.262Z,1008.22
2017-11-08T02:13:06.217Z,1008.25
2017-11-08T02:14:06.174Z,1008.23
2017-11-08T02:15:06.547Z,1008.21
2017-11-08T02:16:06.107Z,1008.23
2017-11-08T02:17:06.062Z,1008.24
2017-11-08T02:18:06.023Z,1008.29
2017-11-08T02:19:05.985Z,1008.27
2017-11-08T02:20:05.945Z,1008.30
2017-11-08T02:21:05.908Z,1008.30
2017-11-08T02:22:05.871Z,1008.24
2017-11-08T02:23:05.830Z,1008.29
2017-11-08T02:24:05.797Z,1008.29
2017-11-08T02:25:05.767Z,1008.30
2017-11-08T02:26:05.719Z,1008.25
2017-11-08T02:27:05.676Z,1008.31
2017-11-08T02:28:05.642Z,1008.33
2017-11-08T02:29:05.601Z,1008.31
2017-11-08T02:30:05.566Z,1008.30
2017-11-08T02:31:05.522Z,1008.32
2017-11-08T02:32:05.486Z,1008.27
2017-11-08T02:33:05.449Z,1008.33
2017-11-08T02:34:05.415Z,1008.32
2017-11-08T02:35:05.370Z,1008.27
2017-11-08T02:36:05.334Z,1008.29
2017-11-08T02:37:05.293Z,1008.31
2017-11-08T02:38:05.255Z,1008.28
2017-11-08T02:39:05.217Z,1008.31
2017-11-08T02:40:05.178Z,1008.37
2017-11-08T02:41:05.140Z,1008.35
2017-11-08T02:42:05.104Z,1008.32
2017-11-08T02:43:05.063Z,1008.34
2017-11-08T02:44:05.026Z,1008.35
2017-11-08T02:45:04.987Z,1008.28
2017-11-08T02:46:04.949Z,1008.33
2017-11-08T02:47:04.911Z,1008.34
2017-11-08T02:48:04.871Z,1008.35
2017-11-08T02:49:04.833Z,1008.44
2017-11-08T02:50:04.795Z,1008.41
2017-11-08T02:51:04.756Z,1008.41
2017-11-08T02:52:04.723Z,1008.47
2017-11-08T02:53:04.681Z,1008.43
2017-11-08T02:54:04.654Z,1008.42
2017-11-08T02:55:04.741Z,1008.45
2017-11-08T02:56:04.566Z,1008.46
2017-11-08T02:57:04.528Z,1008.49
2017-11-08T02:58:04.491Z,1008.52
2017-11-08T02:59:04.746Z,1008.43
2017-11-08T03:00:04.412Z,1008.49
2017-11-08T03:01:04.373Z,1008.37
2017-11-08T03:02:04.336Z,1008.40
2017-11-08T03:03:04.298Z,1008.38
2017-11-08T03:04:04.260Z,1008.35
2017-11-08T03:05:04.221Z,1008.41
2017-11-08T03:06:04.182Z,1008.41
2017-11-08T03:07:04.145Z,1008.43
2017-11-08T03:08:04.107Z,1008.43
2017-11-08T03:09:04.068Z,1008.38
2017-11-08T03:10:04.030Z,1008.43
2017-11-08T03:11:03.990Z,1008.41
2017-11-08T03:12:03.953Z,1008.39
2017-11-08T03:13:03.917Z,1008.42
2017-11-08T03:14:03.880Z,1008.40
2017-11-08T03:15:03.838Z,1008.35
2017-11-08T03:16:03.802Z,1008.35
2017-11-08T03:17:03.761Z,1008.28
2017-11-08T03:18:03.723Z,1008.27
2017-11-08T03:19:03.686Z,1008.26
2017-11-08T03:20:03.647Z,1008.22
2017-11-08T03:21:03.615Z,1008.21
2017-11-08T03:22:03.570Z,1008.23
2017-11-08T03:23:03.531Z,1008.19
2017-11-08T03:24:03.492Z,1008.22
2017-11-08T03:25:03.455Z,1008.19
2017-11-08T03:26:03.416Z,1008.14
2017-11-08T03:27:03.382Z,1008.12
2017-11-08T03:28:03.337Z,1008.11
2017-11-08T03:29:03.301Z,1008.09
2017-11-08T03:30:03.268Z,1008.17
2017-11-08T03:31:03.675Z,1008.13
2017-11-08T03:32:03.184Z,1008.12
2017-11-08T03:33:03.148Z,1008.13
2017-11-08T03:34:03.109Z,1008.10
2017-11-08T03:35:03.068Z,1008.11
2017-11-08T03:36:03.035Z,1008.13
2017-11-08T03:37:02.993Z,1008.17
2017-11-08T03:38:02.954Z,1008.17
2017-11-08T03:39:02.910Z,1008.18
2017-11-08T03:40:02.877Z,1008.15
2017-11-08T03:41:02.840Z,1008.18
2017-11-08T03:42:02.799Z,1008.18
2017-11-08T03:43:02.761Z,1008.14
2017-11-08T03:44:02.727Z,1008.10
2017-11-08T03:45:02.684Z,1008.05
2017-11-08T03:46:02.646Z,1008.06
2017-11-08T03:47:02.607Z,1008.05
2017-11-08T03:48:02.569Z,1008.03
2017-11-08T03:49:02.530Z,1008.03
2017-11-08T03:50:02.491Z,1008.06
2017-11-08T03:51:02.461Z,1008.03
2017-11-08T03:52:02.412Z,1008.01
2017-11-08T03:53:02.374Z,1007.99
2017-11-08T03:54:02.336Z,1008.01
2017-11-08T03:55:02.297Z,1007.99
2017-11-08T03:56:02.258Z,1007.90
2017-11-08T03:57:02.219Z,1007.96
2017-11-08T03:58:02.184Z,1007.95
2017-11-08T03:59:02.143Z,1007.96
2017-11-08T04:00:02.104Z,1007.92
2017-11-08T04:01:02.067Z,1007.95
2017-11-08T04:02:02.024Z,1007.89
2017-11-08T04:03:01.987Z,1007.94
2017-11-08T04:04:01.949Z,1007.93
2017-11-08T04:05:01.909Z,1007.98
2017-11-08T04:06:01.872Z,1008.02
2017-11-08T04:07:01.835Z,1007.97
2017-11-08T04:08:01.810Z,1007.88
2017-11-08T04:09:01.756Z,1007.95
2017-11-08T04:10:01.716Z,1007.98
2017-11-08T04:11:01.679Z,1008.01
2017-11-08T04:12:01.638Z,1008.02
2017-11-08T04:13:01.597Z,1008.09
2017-11-08T04:14:01.555Z,1008.11
2017-11-08T04:15:01.525Z,1008.05
2017-11-08T04:16:01.486Z,1008.07
2017-11-08T04:17:01.446Z,1008.07
2017-11-08T04:18:01.406Z,1007.99
2017-11-08T04:19:01.367Z,1008.05
2017-11-08T04:20:01.327Z,1008.08
2017-11-08T04:21:01.291Z,1008.07
2017-11-08T04:22:01.249Z,1008.04
2017-11-08T04:23:01.213Z,1008.10
2017-11-08T04:24:01.175Z,1008.12
2017-11-08T04:25:01.137Z,1008.02
2017-11-08T04:26:01.096Z,1007.98
2017-11-08T04:27:01.057Z,1008.09
2017-11-08T04:28:01.023Z,1008.01
2017-11-08T04:29:00.982Z,1008.06
2017-11-08T04:30:00.942Z,1008.09
2017-11-08T04:31:00.905Z,1008.12
2017-11-08T04:32:00.865Z,1008.06
2017-11-08T04:33:00.824Z,1008.03
2017-11-08T04:34:00.788Z,1008.01
2017-11-08T04:35:00.749Z,1007.91
2017-11-08T04:36:00.711Z,1007.97
2017-11-08T04:37:00.670Z,1007.95
2017-11-08T04:38:00.635Z,1008.02
2017-11-08T04:39:00.594Z,1008.03
2017-11-08T04:40:00.555Z,1008.04
2017-11-08T04:41:00.518Z,1008.05
2017-11-08T04:42:00.481Z,1008.09
2017-11-08T04:43:00.441Z,1008.08
2017-11-08T04:44:00.403Z,1008.12
2017-11-08T04:45:00.368Z,1008.12
2017-11-08T04:46:00.328Z,1008.11
2017-11-08T04:47:00.289Z,1008.16
2017-11-08T04:48:00.244Z,1008.13
2017-11-08T04:49:00.212Z,1008.19
2017-11-08T04:50:00.171Z,1008.20
2017-11-08T04:51:00.132Z,1008.27
2017-11-08T04:52:00.099Z,1008.23
2017-11-08T04:53:00.312Z,1008.15
2017-11-08T04:54:00.018Z,1008.25
2017-11-08T04:54:59.979Z,1008.20
2017-11-08T04:55:59.941Z,1008.26
2017-11-08T04:56:59.906Z,1008.19
2017-11-08T04:57:59.865Z,1008.29
2017-11-08T04:58:59.824Z,1008.32
2017-11-08T04:59:59.793Z,1008.29
2017-11-08T05:00:59.749Z,1008.29
2017-11-08T05:01:59.712Z,1008.34
2017-11-08T05:02:59.670Z,1008.32
2017-11-08T05:03:59.633Z,1008.34
2017-11-08T05:04:59.594Z,1008.35
2017-11-08T05:05:59.557Z,1008.28
2017-11-08T05:06:59.519Z,1008.29
2017-11-08T05:07:59.479Z,1008.27
2017-11-08T05:08:59.442Z,1008.30
2017-11-08T05:09:59.403Z,1008.25
2017-11-08T05:10:59.364Z,1008.27
2017-11-08T05:11:59.326Z,1008.17
2017-11-08T05:12:59.289Z,1008.24
2017-11-08T05:13:59.251Z,1008.24
2017-11-08T05:14:59.209Z,1008.27
2017-11-08T05:15:59.174Z,1008.22
2017-11-08T05:16:59.134Z,1008.27
2017-11-08T05:17:59.114Z,1008.32
2017-11-08T05:18:59.059Z,1008.27
2017-11-08T05:19:59.020Z,1008.24
2017-11-08T05:20:58.980Z,1008.23
2017-11-08T05:21:58.942Z,1008.23
2017-11-08T05:22:58.904Z,1008.17
2017-11-08T05:23:58.863Z,1008.16
2017-11-08T05:24:58.824Z,1008.15
2017-11-08T05:25:58.788Z,1008.09
2017-11-08T05:26:58.749Z,1008.13
2017-11-08T05:27:58.712Z,1008.14
2017-11-08T05:28:58.674Z,1008.17
2017-11-08T05:29:58.634Z,1008.19
2017-11-08T05:30:58.598Z,1008.23
2017-11-08T05:31:58.562Z,1008.22
2017-11-08T05:32:58.519Z,1008.22
2017-11-08T05:33:58.481Z,1008.29
2017-11-08T05:34:58.445Z,1008.23
2017-11-08T05:35:58.403Z,1008.26
2017-11-08T05:36:58.367Z,1008.26
2017-11-08T05:37:58.326Z,1008.25
2017-11-08T05:38:58.287Z,1008.25
2017-11-08T05:39:58.455Z,1008.27
2017-11-08T05:40:58.213Z,1008.27
2017-11-08T05:41:58.173Z,1008.23
2017-11-08T05:42:58.139Z,1008.26
2017-11-08T05:43:58.096Z,1008.25
2017-11-08T05:44:58.058Z,1008.26
2017-11-08T05:45:58.018Z,1008.32
2017-11-08T05:46:57.981Z,1008.26
2017-11-08T05:47:57.941Z,1008.31
2017-11-08T05:48:57.904Z,1008.29
2017-11-08T05:49:57.864Z,1008.33
2017-11-08T05:50:57.827Z,1008.26
2017-11-08T05:51:57.789Z,1008.35
2017-11-08T05:52:57.751Z,1008.36
2017-11-08T05:53:57.712Z,1008.33
2017-11-08T05:54:57.675Z,1008.31
2017-11-08T05:55:57.637Z,1008.39
2017-11-08T05:56:57.596Z,1008.41
2017-11-08T05:57:57.559Z,1008.41
2017-11-08T05:58:57.839Z,1008.39
2017-11-08T05:59:57.481Z,1008.42
2017-11-08T06:00:57.445Z,1008.47
2017-11-08T06:01:57.404Z,1008.47
2017-11-08T06:02:57.365Z,1008.56
2017-11-08T06:03:57.328Z,1008.48
2017-11-08T06:04:57.290Z,1008.54
2017-11-08T06:05:57.252Z,1008.54
2017-11-08T06:06:57.213Z,1008.48
2017-11-08T06:07:57.181Z,1008.46
2017-11-08T06:08:57.137Z,1008.45
2017-11-08T06:09:57.124Z,1008.41
2017-11-08T06:10:57.067Z,1008.43
2017-11-08T06:11:57.021Z,1008.39
2017-11-08T06:12:56.992Z,1008.39
2017-11-08T06:13:56.946Z,1008.42
2017-11-08T06:14:56.908Z,1008.43
2017-11-08T06:15:56.868Z,1008.38
2017-11-08T06:16:56.858Z,1008.41
2017-11-08T06:17:56.793Z,1008.41
2017-11-08T06:18:56.753Z,1008.42
2017-11-08T06:19:56.714Z,1008.39
2017-11-08T06:20:56.676Z,1008.38
2017-11-08T06:21:56.640Z,1008.29
2017-11-08T06:22:56.598Z,1008.33
2017-11-08T06:23:56.563Z,1008.38
2017-11-08T06:24:56.523Z,1008.35
2017-11-08T06:25:56.485Z,1008.35
2017-11-08T06:26:56.450Z,1008.32
2017-11-08T06:27:56.408Z,1008.27
2017-11-08T06:28:56.369Z,1008.33
2017-11-08T06:29:56.333Z,1008.31
2017-11-08T06:30:56.294Z,1008.31
2017-11-08T06:31:56.255Z,1008.29
2017-11-08T06:32:56.217Z,1008.27
2017-11-08T06:33:56.176Z,1008.26
2017-11-08T06:34:56.139Z,1008.37
2017-11-08T06:35:56.104Z,1008.26
2017-11-08T06:36:56.064Z,1008.32
2017-11-08T06:37:56.025Z,1008.31
2017-11-08T06:38:55.986Z,1008.32
2017-11-08T06:39:55.948Z,1008.24
2017-11-08T06:40:55.910Z,1008.22
2017-11-08T06:41:55.873Z,1008.24
2017-11-08T06:42:55.830Z,1008.34
2017-11-08T06:43:55.793Z,1008.39
2017-11-08T06:44:55.754Z,1008.37
2017-11-08T06:45:55.715Z,1008.39
2017-11-08T06:46:55.677Z,1008.39
2017-11-08T06:47:55.639Z,1008.37
2017-11-08T06:48:55.602Z,1008.43
2017-11-08T06:49:55.563Z,1008.41
2017-11-08T06:50:55.532Z,1008.46
2017-11-08T06:51:55.496Z,1008.40
2017-11-08T06:52:55.448Z,1008.44
2017-11-08T06:53:55.413Z,1008.45
2017-11-08T06:54:55.376Z,1008.41
2017-11-08T06:55:55.333Z,1008.45
2017-11-08T06:56:55.294Z,1008.57
2017-11-08T06:57:55.258Z,1008.58
2017-11-08T06:58:55.217Z,1008.57
2017-11-08T06:59:55.177Z,1008.61
2017-11-08T07:00:55.143Z,1008.60
2017-11-08T07:01:55.103Z,1008.60
2017-11-08T07:02:55.064Z,1008.68
2017-11-08T07:03:55.029Z,1008.68
2017-11-08T07:04:54.988Z,1008.70
2017-11-08T07:05:54.950Z,1008.70
2017-11-08T07:06:54.911Z,1008.79
2017-11-08T07:07:54.872Z,1008.72
2017-11-08T07:08:54.837Z,1008.77
2017-11-08T07:09:54.816Z,1008.72
2017-11-08T07:10:54.758Z,1008.80
2017-11-08T07:11:54.721Z,1008.80
2017-11-08T07:12:54.687Z,1008.79
2017-11-08T07:13:54.646Z,1008.81
2017-11-08T07:14:54.606Z,1008.83
2017-11-08T07:15:54.572Z,1008.83
2017-11-08T07:16:54.530Z,1008.87
2017-11-08T07:17:54.491Z,1008.93
2017-11-08T07:18:54.453Z,1008.94
2017-11-08T07:19:54.415Z,1008.97
2017-11-08T07:20:54.387Z,1008.98
2017-11-08T07:21:54.340Z,1008.84
2017-11-08T07:22:54.302Z,1008.98
2017-11-08T07:23:54.263Z,1008.93
2017-11-08T07:24:54.227Z,1009.01
2017-11-08T07:25:54.188Z,1009.01
2017-11-08T07:26:54.149Z,1009.06
2017-11-08T07:27:54.112Z,1009.15
2017-11-08T07:28:54.074Z,1009.17
2017-11-08T07:29:54.038Z,1009.15
2017-11-08T07:30:53.997Z,1009.23
2017-11-08T07:31:53.960Z,1009.22
2017-11-08T07:32:53.922Z,1009.22
2017-11-08T07:33:53.884Z,1009.25
2017-11-08T07:34:53.847Z,1009.23
2017-11-08T07:35:53.807Z,1009.21
2017-11-08T07:36:53.770Z,1009.27
2017-11-08T07:37:53.736Z,1009.36
2017-11-08T07:38:53.692Z,1009.35
2017-11-08T07:39:53.655Z,1009.32
2017-11-08T07:40:53.616Z,1009.31
2017-11-08T07:41:53.577Z,1009.24
2017-11-08T07:42:53.540Z,1009.27
2017-11-08T07:43:53.502Z,1009.38
2017-11-08T07:44:53.465Z,1009.40
2017-11-08T07:45:53.426Z,1009.39
2017-11-08T07:46:53.392Z,1009.39
2017-11-08T07:47:53.349Z,1009.36
2017-11-08T07:48:53.312Z,1009.38
2017-11-08T07:49:53.275Z,1009.42
2017-11-08T07:50:53.253Z,1009.44
2017-11-08T07:51:53.198Z,1009.36
2017-11-08T07:52:53.165Z,1009.43
2017-11-08T07:53:53.125Z,1009.50
2017-11-08T07:54:53.083Z,1009.50
2017-11-08T07:55:53.045Z,1009.45
2017-11-08T07:56:53.010Z,1009.49
2017-11-08T07:57:53.405Z,1009.53
2017-11-08T07:58:52.933Z,1009.52
2017-11-08T07:59:52.893Z,1009.52
2017-11-08T08:00:52.856Z,1009.50
2017-11-08T08:01:52.819Z,1009.51
2017-11-08T08:02:52.780Z,1009.53
2017-11-08T08:03:52.740Z,1009.52
2017-11-08T08:04:52.703Z,1009.50
2017-11-08T08:05:52.666Z,1009.45
2017-11-08T08:06:52.626Z,1009.47
2017-11-08T08:07:52.589Z,1009.51
2017-11-08T08:08:52.553Z,1009.38
2017-11-08T08:09:52.518Z,1009.53
2017-11-08T08:10:52.476Z,1009.52
2017-11-08T08:11:52.436Z,1009.53
2017-11-08T08:12:52.400Z,1009.51
2017-11-08T08:13:52.361Z,1009.41
2017-11-08T08:14:52.327Z,1009.47
2017-11-08T08:15:52.286Z,1009.49
2017-11-08T08:16:52.247Z,1009.50
2017-11-08T08:17:52.210Z,1009.44
2017-11-08T08:18:52.173Z,1009.44
2017-11-08T08:19:52.133Z,1009.44
2017-11-08T08:20:52.115Z,1009.44
2017-11-08T08:21:52.059Z,1009.41
2017-11-08T08:22:52.782Z,1009.39
2017-11-08T08:23:51.986Z,1009.44
2017-11-08T08:24:51.951Z,1009.37
2017-11-08T08:25:51.908Z,1009.46
2017-11-08T08:26:51.874Z,1009.42
2017-11-08T08:27:51.831Z,1009.52
2017-11-08T08:28:51.794Z,1009.53
2017-11-08T08:29:51.756Z,1009.50
2017-11-08T08:30:51.719Z,1009.54
2017-11-08T08:31:51.684Z,1009.51
2017-11-08T08:32:51.647Z,1009.53
2017-11-08T08:33:51.604Z,1009.51
2017-11-08T08:34:51.566Z,1009.48
2017-11-08T08:35:51.528Z,1009.47
2017-11-08T08:36:51.493Z,1009.50
2017-11-08T08:37:51.456Z,1009.50
2017-11-08T08:38:51.420Z,1009.52
2017-11-08T08:39:51.380Z,1009.50
2017-11-08T08:40:51.341Z,1009.45
2017-11-08T08:41:51.302Z,1009.57
2017-11-08T08:42:51.265Z,1009.57
2017-11-08T08:43:51.230Z,1009.60
2017-11-08T08:44:51.189Z,1009.63
2017-11-08T08:45:51.157Z,1009.55
2017-11-08T08:46:51.113Z,1009.64
2017-11-08T08:47:51.076Z,1009.63
2017-11-08T08:48:51.038Z,1009.65
2017-11-08T08:49:51.002Z,1009.70
2017-11-08T08:50:50.964Z,1009.66
2017-11-08T08:51:50.925Z,1009.68
2017-11-08T08:52:50.887Z,1009.73
2017-11-08T08:53:50.851Z,1009.70
2017-11-08T08:54:50.813Z,1009.71
2017-11-08T08:55:50.774Z,1009.74
2017-11-08T08:56:50.737Z,1009.85
2017-11-08T08:57:50.701Z,1009.77
2017-11-08T08:58:50.662Z,1009.80
2017-11-08T08:59:50.623Z,1009.81
2017-11-08T09:00:50.584Z,1009.79
2017-11-08T09:01:50.550Z,1009.79
2017-11-08T09:02:50.510Z,1009.79
2017-11-08T09:03:50.473Z,1009.76
2017-11-08T09:04:50.436Z,1009.73
2017-11-08T09:05:50.412Z,1009.78
2017-11-08T09:06:50.359Z,1009.73
2017-11-08T09:07:50.322Z,1009.74
2017-11-08T09:08:50.285Z,1009.77
2017-11-08T09:09:50.248Z,1009.73
2017-11-08T09:10:50.210Z,1009.75
2017-11-08T09:11:50.172Z,1009.76
2017-11-08T09:12:50.137Z,1009.79
2017-11-08T09:13:50.098Z,1009.74
2017-11-08T09:14:50.059Z,1009.80
2017-11-08T09:15:50.022Z,1009.83
2017-11-08T09:16:49.984Z,1009.84
2017-11-08T09:17:49.947Z,1009.83
2017-11-08T09:18:49.907Z,1009.85
2017-11-08T09:19:49.869Z,1009.86
2017-11-08T09:20:49.834Z,1009.88
2017-11-08T09:21:49.795Z,1009.87
2017-11-08T09:22:49.757Z,1009.86
2017-11-08T09:23:49.720Z,1009.89
2017-11-08T09:24:49.683Z,1009.93
2017-11-08T09:25:49.645Z,1009.99
2017-11-08T09:26:49.609Z,1009.87
2017-11-08T09:27:49.569Z,1009.97
2017-11-08T09:28:49.537Z,1009.97
2017-11-08T09:29:49.495Z,1010.02
2017-11-08T09:30:49.458Z,1009.94
2017-11-08T09:31:49.416Z,1009.94
2017-11-08T09:32:49.380Z,1009.97
2017-11-08T09:33:49.345Z,1009.93
2017-11-08T09:34:49.308Z,1009.94
2017-11-08T09:35:49.269Z,1009.91
2017-11-08T09:36:49.232Z,1009.95
2017-11-08T09:37:49.194Z,1010.00
2017-11-08T09:38:49.160Z,1009.98
2017-11-08T09:39:49.118Z,1009.99
2017-11-08T09:40:49.076Z,1009.95
2017-11-08T09:41:49.055Z,1009.99
2017-11-08T09:42:49.007Z,1009.97
2017-11-08T09:43:48.969Z,1009.92
2017-11-08T09:44:48.933Z,1009.96
2017-11-08T09:45:48.898Z,1009.92
2017-11-08T09:46:48.859Z,1009.92
2017-11-08T09:47:48.821Z,1009.86
2017-11-08T09:48:48.782Z,1009.87
2017-11-08T09:49:48.744Z,1009.97
2017-11-08T09:50:48.708Z,1009.94
2017-11-08T09:51:48.670Z,1009.96
2017-11-08T09:52:48.640Z,1009.97
2017-11-08T09:53:48.595Z,1009.99
2017-11-08T09:54:48.558Z,1009.97
2017-11-08T09:55:48.521Z,1009.98
2017-11-08T09:56:48.485Z,1009.91
2017-11-08T09:57:48.450Z,1009.97
2017-11-08T09:58:48.408Z,1009.97
2017-11-08T09:59:48.371Z,1009.90
2017-11-08T10:00:48.335Z,1009.85
2017-11-08T10:01:48.297Z,1009.87
2017-11-08T10:02:48.259Z,1009.89
2017-11-08T10:03:48.222Z,1009.93
2017-11-08T10:04:48.185Z,1009.89
2017-11-08T10:05:48.150Z,1009.89
2017-11-08T10:06:48.115Z,1009.90
2017-11-08T10:07:48.101Z,1009.91
2017-11-08T10:08:48.052Z,1009.91
2017-11-08T10:09:47.999Z,1009.92
2017-11-08T10:10:47.966Z,1009.90
2017-11-08T10:11:47.926Z,1009.84
2017-11-08T10:12:47.902Z,1009.93
2017-11-08T10:13:47.877Z,1009.89
2017-11-08T10:14:48.512Z,1009.90
2017-11-08T10:15:47.796Z,1009.92
2017-11-08T10:16:47.739Z,1009.99
2017-11-08T10:17:47.704Z,1009.96
2017-11-08T10:18:47.664Z,1009.94
2017-11-08T10:19:47.628Z,1009.94
2017-11-08T10:20:47.666Z,1009.94
2017-11-08T10:21:47.555Z,1009.99
2017-11-08T10:22:47.517Z,1009.93
2017-11-08T10:23:47.479Z,1009.95
2017-11-08T10:24:47.444Z,1009.98
2017-11-08T10:25:47.408Z,1010.01
2017-11-08T10:26:47.812Z,1010.01
2017-11-08T10:27:47.331Z,1010.04
2017-11-08T10:28:47.295Z,1010.05
2017-11-08T10:29:47.258Z,1010.04
2017-11-08T10:30:47.219Z,1010.10
2017-11-08T10:31:47.185Z,1010.00
2017-11-08T10:32:47.145Z,1010.03
2017-11-08T10:33:47.110Z,1010.06
2017-11-08T10:34:47.071Z,1010.09
2017-11-08T10:35:47.035Z,1010.14
2017-11-08T10:36:46.997Z,1010.07
2017-11-08T10:37:46.961Z,1010.14
2017-11-08T10:38:46.924Z,1010.10
2017-11-08T10:39:46.887Z,1010.15
2017-11-08T10:40:46.849Z,1010.16
2017-11-08T10:41:46.817Z,1010.09
2017-11-08T10:42:46.740Z,1010.20
2017-11-08T10:43:46.706Z,1010.15
2017-11-08T10:44:46.667Z,1010.22
2017-11-08T10:45:46.631Z,1010.19
2017-11-08T10:46:46.599Z,1010.18
2017-11-08T10:47:46.556Z,1010.16
2017-11-08T10:48:46.519Z,1010.19
2017-11-08T10:49:46.481Z,1010.23
2017-11-08T10:50:46.443Z,1010.23
2017-11-08T10:51:46.407Z,1010.19
2017-11-08T10:52:46.369Z,1010.26
2017-11-08T10:53:46.332Z,1010.26
2017-11-08T10:54:46.295Z,1010.19
2017-11-08T10:55:46.652Z,1010.23
2017-11-08T10:56:46.220Z,1010.24
2017-11-08T10:57:46.185Z,1010.17
2017-11-08T10:58:46.148Z,1010.20
2017-11-08T10:59:46.108Z,1010.17
2017-11-08T11:00:46.073Z,1010.19
2017-11-08T11:01:46.037Z,1010.13
2017-11-08T11:02:45.999Z,1010.21
2017-11-08T11:03:45.961Z,1010.15
2017-11-08T11:04:45.927Z,1010.13
2017-11-08T11:05:45.888Z,1010.12
2017-11-08T11:06:45.851Z,1010.10
2017-11-08T11:07:45.817Z,1010.11
2017-11-08T11:08:45.780Z,1010.09
2017-11-08T11:09:45.744Z,1010.01
2017-11-08T11:10:45.704Z,1010.05
2017-11-08T11:11:45.668Z,1010.11
2017-11-08T11:12:45.633Z,1010.13
2017-11-08T11:13:45.595Z,1010.13
2017-11-08T11:14:45.559Z,1010.12
2017-11-08T11:15:45.525Z,1010.11
2017-11-08T11:16:45.487Z,1010.15
2017-11-08T11:17:45.450Z,1010.16
2017-11-08T11:18:45.412Z,1010.15
2017-11-08T11:19:45.380Z,1010.03
2017-11-08T11:20:45.341Z,1010.16
2017-11-08T11:21:45.303Z,1010.22
2017-11-08T11:22:45.266Z,1010.18
2017-11-08T11:23:45.231Z,1010.11
2017-11-08T11:24:45.455Z,1010.17
2017-11-08T11:25:45.158Z,1010.18
2017-11-08T11:26:45.118Z,1010.17
2017-11-08T11:27:45.097Z,1010.13
2017-11-08T11:28:45.049Z,1010.12
2017-11-08T11:29:45.011Z,1010.12
2017-11-08T11:30:44.977Z,1010.20
2017-11-08T11:31:44.939Z,1010.15
2017-11-08T11:32:44.902Z,1010.15
2017-11-08T11:33:44.875Z,1010.19
2017-11-08T11:34:44.837Z,1010.15
2017-11-08T11:35:44.792Z,1010.15
2017-11-08T11:36:44.754Z,1010.18
2017-11-08T11:37:44.720Z,1010.19
2017-11-08T11:38:44.682Z,1010.15
2017-11-08T11:39:44.703Z,1010.19
2017-11-08T11:40:44.610Z,1010.09
2017-11-08T11:41:44.574Z,1010.18
2017-11-08T11:42:44.616Z,1010.14
2017-11-08T11:43:44.501Z,1010.17
2017-11-08T11:44:44.465Z,1010.16
2017-11-08T11:45:44.440Z,1010.14
2017-11-08T11:46:44.390Z,1010.14
2017-11-08T11:47:44.353Z,1010.14
2017-11-08T11:48:44.317Z,1010.17
2017-11-08T11:49:44.282Z,1010.18
2017-11-08T11:50:44.244Z,1010.18
2017-11-08T11:51:44.928Z,1010.23
2017-11-08T11:52:44.176Z,1010.19
2017-11-08T11:53:44.135Z,1010.13
2017-11-08T11:54:44.099Z,1010.21
2017-11-08T11:55:44.060Z,1010.20
2017-11-08T11:56:44.026Z,1010.27
2017-11-08T11:57:43.988Z,1010.30
2017-11-08T11:58:43.950Z,1010.27
2017-11-08T11:59:43.914Z,1010.28
2017-11-08T12:00:43.878Z,1010.27
2017-11-08T12:01:43.840Z,1010.27
2017-11-08T12:02:43.808Z,1010.24
2017-11-08T12:03:45.356Z,1010.27
2017-11-08T12:04:43.810Z,1010.31